Time;durP1;ratioP1;P1;durP2;ratioP2;P2;SDS_P1;SDS_P2;PMS_P1;PMS_P2;Temp;Humidity;BMP_temperature;BMP_pressure;BME280_temperature;BME280_humidity;BME280_pressure;Samples;Min_cycle;Max_cycle;Signal;HPM_P1;HPM_P2
2024/02/11 00:01:09;;;;;;;22.45;10.95;;;;;;;4.82;100.00;99126.53;4929155;29;20040;-75
2024/02/11 00:03:37;;;;;;;26.48;11.68;;;;;;;4.80;100.00;99115.38;4911933;28;20449;-73
2024/02/11 00:06:08;;;;;;;27.88;11.32;;;;;;;4.82;100.00;99119.38;4925250;29;20035;-74
2024/02/11 00:08:34;;;;;;;28.60;11.90;;;;;;;4.80;100.00;99115.38;4899433;29;20040;-74
2024/02/11 00:11:00;;;;;;;26.42;11.35;;;;;;;4.76;100.00;99114.34;4918593;29;20036;-75
2024/02/11 00:13:29;;;;;;;28.67;12.18;;;;;;;4.76;100.00;99114.34;4905086;29;20036;-74
2024/02/11 00:15:55;;;;;;;28.50;12.15;;;;;;;4.77;100.00;99122.03;4894475;29;20421;-74
2024/02/11 00:18:24;;;;;;;26.25;11.80;;;;;;;4.76;100.00;99122.31;4897456;29;20330;-74
2024/02/11 00:20:51;;;;;;;24.98;11.65;;;;;;;4.75;100.00;99112.75;4920895;29;20043;-75
2024/02/11 00:23:17;;;;;;;27.17;11.05;;;;;;;4.75;100.00;99118.06;4891512;29;20074;-74
2024/02/11 00:25:42;;;;;;;27.80;12.57;;;;;;;4.72;100.00;99107.97;4918785;29;20044;-74
2024/02/11 00:28:08;;;;;;;27.25;12.02;;;;;;;4.75;100.00;99107.47;4922735;29;20062;-74
2024/02/11 00:30:38;;;;;;;25.40;11.68;;;;;;;4.73;100.00;99106.91;4924314;29;20405;-75
2024/02/11 00:33:05;;;;;;;27.52;10.98;;;;;;;4.71;100.00;99111.69;4921754;29;20046;-74
2024/02/11 00:35:30;;;;;;;29.73;11.77;;;;;;;4.71;100.00;99111.69;4921133;29;20040;-74
2024/02/11 00:38:00;;;;;;;28.02;11.48;;;;;;;4.72;100.00;99110.63;4910572;29;20398;-75
2024/02/11 00:40:26;;;;;;;26.98;11.50;;;;;;;4.69;100.00;99106.69;4921369;29;20063;-74
2024/02/11 00:42:52;;;;;;;;;;;;;;;4.71;100.00;99111.69;4918477;29;20039;-75
2024/02/11 00:45:17;;;;;;;26.42;10.85;;;;;;;4.69;100.00;99116.50;4925150;29;19974;-73
2024/02/11 00:47:47;;;;;;;30.75;12.45;;;;;;;4.68;100.00;99118.34;4920611;29;20043;-73
2024/02/11 00:50:14;;;;;;;28.83;12.07;;;;;;;4.68;100.00;99128.16;4924356;29;20032;-74
2024/02/11 00:52:41;;;;;;;23.95;10.93;;;;;;;4.66;100.00;99123.09;4926491;29;20051;-73
2024/02/11 00:55:10;;;;;;;27.58;12.05;;;;;;;4.63;100.00;99128.97;4933498;28;20032;-75
2024/02/11 00:57:36;;;;;;;28.80;13.05;;;;;;;4.64;100.00;99117.28;4921423;28;20032;-75
2024/02/11 01:00:09;;;;;;;27.63;10.90;;;;;;;4.62;100.00;99114.91;4923825;29;20035;-74
2024/02/11 01:02:35;;;;;;;28.27;12.38;;;;;;;4.65;100.00;99109.06;4924307;29;20366;-73
2024/02/11 01:05:02;;;;;;;26.70;12.00;;;;;;;4.62;100.00;99106.97;4917172;29;20031;-74
2024/02/11 01:07:27;;;;;;;27.83;11.48;;;;;;;4.63;100.00;99099.81;4919774;29;20043;-73
2024/02/11 01:09:53;;;;;;;22.55;10.65;;;;;;;4.60;100.00;99111.72;4921280;29;20578;-74
2024/02/11 01:12:19;;;;;;;29.00;12.60;;;;;;;4.60;100.00;99111.72;4919782;29;20068;-75
2024/02/11 01:14:44;;;;;;;26.25;11.18;;;;;;;4.61;100.00;99118.63;4919166;29;20044;-74
2024/02/11 01:17:10;;;;;;;25.02;10.60;;;;;;;4.57;100.00;99119.44;4919830;29;20576;-74
2024/02/11 01:19:36;;;;;;;28.55;12.57;;;;;;;4.56;100.00;99125.81;4914450;29;20039;-73
2024/02/11 01:22:02;;;;;;;27.25;12.48;;;;;;;4.56;100.00;99121.28;4923181;29;20039;-73
2024/02/11 01:24:28;;;;;;;26.67;10.82;;;;;;;4.56;100.00;99121.28;4911611;29;20682;-73
2024/02/11 01:26:53;;;;;;;24.58;11.32;;;;;;;4.56;100.00;99116.00;4898601;29;20040;-74
2024/02/11 01:29:19;;;;;;;25.80;10.95;;;;;;;4.57;100.00;99122.88;4903316;29;20046;-76
2024/02/11 01:31:44;;;;;;;25.73;13.02;;;;;;;4.58;100.00;99113.84;4925361;29;20493;-73
2024/02/11 01:34:10;;;;;;;24.42;12.48;;;;;;;4.57;100.00;99104.31;4889554;29;20148;-76
2024/02/11 01:36:36;;;;;;;25.73;11.27;;;;;;;4.58;100.00;99100.59;4904052;29;20054;-76
2024/02/11 01:39:02;;;;;;;24.30;11.00;;;;;;;4.56;100.00;99100.09;4919309;29;20046;-73
2024/02/11 01:41:27;;;;;;;22.52;10.98;;;;;;;4.53;100.00;99092.66;4906054;29;20040;-74
2024/02/11 01:43:53;;;;;;;27.85;11.65;;;;;;;4.53;100.00;99095.31;4914784;29;20031;-74
2024/02/11 01:46:20;;;;;;;23.55;11.35;;;;;;;4.54;100.00;99099.56;4921575;29;20552;-76
2024/02/11 01:48:46;;;;;;;25.58;11.43;;;;;;;4.51;100.00;99102.75;4936066;28;20039;-71
2024/02/11 01:51:12;;;;;;;28.40;10.93;;;;;;;4.52;100.00;99109.63;4923802;29;20048;-74
2024/02/11 01:53:39;;;;;;;28.20;11.77;;;;;;;4.53;100.00;99095.31;4919856;29;20043;-74
2024/02/11 01:56:06;;;;;;;26.48;11.82;;;;;;;4.52;100.00;99103.53;4917880;29;20047;-75
2024/02/11 01:58:32;;;;;;;27.95;11.13;;;;;;;4.48;100.00;99110.44;4920504;29;20039;-75
2024/02/11 02:00:58;;;;;;;29.90;12.27;;;;;;;4.46;100.00;99104.59;4923033;29;21057;-74
2024/02/11 02:03:24;;;;;;;;;;;;;;;4.44;100.00;99102.22;4925617;29;20090;-73
2024/02/11 02:05:51;;;;;;;24.27;10.57;;;;;;;4.41;100.00;99115.25;4925453;29;20371;-74
2024/02/11 02:08:17;;;;;;;30.55;11.60;;;;;;;4.39;100.00;99112.84;4907742;29;20036;-75
2024/02/11 02:10:44;;;;;;;30.92;12.50;;;;;;;4.38;100.00;99113.91;4921174;29;20091;-74
2024/02/11 02:13:10;;;;;;;27.17;10.63;;;;;;;4.41;100.00;99123.19;4900369;29;20112;-73
2024/02/11 02:15:36;;;;;;;27.52;11.80;;;;;;;4.39;100.00;99120.78;4919660;29;20035;-74
2024/02/11 02:18:01;;;;;;;27.77;10.57;;;;;;;4.40;100.00;99119.72;4905832;29;20051;-74
2024/02/11 02:20:27;;;;;;;25.10;11.27;;;;;;;4.33;100.00;99124.50;4924889;29;20063;-74
2024/02/11 02:22:53;;;;;;;27.38;11.30;;;;;;;4.30;100.00;99119.75;4920233;29;20099;-73
2024/02/11 02:25:19;;;;;;;26.23;10.82;;;;;;;4.30;100.00;99117.91;4915983;29;20797;-72
2024/02/11 02:27:46;;;;;;;27.52;10.80;;;;;;;4.28;100.00;99109.44;4910428;29;20053;-75
2024/02/11 02:30:12;;;;;;;;;;;;;;;4.22;100.00;99105.19;4924832;29;20035;-73
2024/02/11 02:32:37;;;;;;;25.45;10.02;;;;;;;4.21;100.00;99108.13;4933020;23;19981;-76
2024/02/11 02:35:03;;;;;;;27.90;10.50;;;;;;;4.20;100.00;99106.50;4947885;28;20047;-77
2024/02/11 02:37:30;;;;;;;25.88;11.32;;;;;;;4.21;100.00;99108.91;4912477;29;20031;-78
2024/02/11 02:39:55;;;;;;;28.35;10.98;;;;;;;4.21;100.00;99100.16;4939506;28;20044;-76
2024/02/11 02:42:21;;;;;;;22.63;11.00;;;;;;;4.20;100.00;99096.72;4931016;28;20076;-77
2024/02/11 02:44:47;;;;;;;26.95;10.80;;;;;;;4.18;100.00;99090.09;4935528;28;20039;-77
2024/02/11 02:47:13;;;;;;;25.35;10.73;;;;;;;4.16;100.00;99078.97;4950767;28;20035;-77
2024/02/11 02:49:39;;;;;;;26.23;10.05;;;;;;;4.16;100.00;99095.66;4935857;28;20086;-77
2024/02/11 02:52:07;;;;;;;;;;;;;;;4.18;100.00;99098.03;4942865;28;20580;-77
2024/02/11 02:54:34;;;;;;;26.15;10.68;;;;;;;4.16;100.00;99094.88;4921680;29;20380;-78
2024/02/11 02:56:59;;;;;;;23.85;10.65;;;;;;;4.13;100.00;99090.09;4941582;28;20094;-76
2024/02/11 02:59:25;;;;;;;27.77;11.32;;;;;;;4.10;100.00;99086.91;4938554;28;20532;-77
2024/02/11 03:02:03;;;;;;;30.00;11.40;;;;;;;4.09;100.00;99085.34;4943724;28;20074;-77
2024/02/11 03:04:29;;;;;;;26.42;10.77;;;;;;;4.09;100.00;99072.09;4941369;28;20114;-77
2024/02/11 03:06:57;;;;;;;26.90;10.98;;;;;;;4.08;100.00;99059.13;4923710;28;20042;-78
2024/02/11 03:09:24;;;;;;;27.02;9.85;;;;;;;4.08;100.00;99061.78;4938051;28;20056;-76
2024/02/11 03:11:50;;;;;;;24.40;9.88;;;;;;;4.07;100.00;99047.72;4938756;28;20062;-76
2024/02/11 03:14:18;;;;;;;25.40;10.25;;;;;;;4.09;100.00;99048.25;4939315;28;20485;-79
2024/02/11 03:16:46;;;;;;;23.20;9.73;;;;;;;4.08;100.00;99045.88;4942271;28;20071;-79
2024/02/11 03:19:16;;;;;;;23.30;10.32;;;;;;;4.10;100.00;99039.25;4927288;29;20043;-79
2024/02/11 03:21:42;;;;;;;23.65;10.18;;;;;;;4.12;100.00;99054.84;4938653;28;20040;-77
2024/02/11 03:24:08;;;;;;;22.83;10.07;;;;;;;4.08;100.00;99057.25;4939126;28;20031;-78
2024/02/11 03:26:34;;;;;;;27.05;9.75;;;;;;;4.10;100.00;99055.13;4934337;28;20512;-77
2024/02/11 03:29:00;;;;;;;27.02;9.60;;;;;;;4.11;100.00;99051.41;4916447;28;20568;-77
2024/02/11 03:31:27;;;;;;;23.75;9.23;;;;;;;4.09;100.00;99042.94;4932869;28;20127;-78
2024/02/11 03:33:53;;;;;;;24.30;10.20;;;;;;;4.10;100.00;99044.53;4926782;28;20529;-79
2024/02/11 03:36:19;;;;;;;;;;;;;;;4.12;100.00;99044.25;4936627;28;20035;-78
2024/02/11 03:38:45;;;;;;;21.50;9.35;;;;;;;4.11;100.00;99054.06;4919698;28;19914;-79
2024/02/11 03:41:12;;;;;;;19.92;10.10;;;;;;;4.13;100.00;99053.00;4937748;28;20035;-77
2024/02/11 03:43:38;;;;;;;22.95;10.30;;;;;;;4.14;100.00;99049.31;4936903;28;20049;-77
2024/02/11 03:46:06;;;;;;;22.55;9.55;;;;;;;4.15;100.00;99066.78;4933268;28;20409;-79
2024/02/11 03:48:32;;;;;;;21.35;10.07;;;;;;;4.16;100.00;99063.88;4931613;28;20043;-79
2024/02/11 03:51:00;;;;;;;21.50;10.20;;;;;;;4.12;100.00;99054.84;4931482;28;20047;-77
2024/02/11 03:53:26;;;;;;;23.08;9.80;;;;;;;4.13;100.00;99063.59;4923046;28;20098;-77
2024/02/11 03:55:52;;;;;;;20.88;9.88;;;;;;;4.13;100.00;99066.25;4942025;28;20098;-77
2024/02/11 03:58:18;;;;;;;24.25;10.35;;;;;;;4.15;100.00;99064.16;4934657;28;20118;-76
2024/02/11 04:00:44;;;;;;;24.48;10.65;;;;;;;4.15;100.00;99072.09;4933643;28;20171;-78
2024/02/11 04:03:12;;;;;;;21.77;8.85;;;;;;;4.13;100.00;99067.03;4939561;28;20062;-78
2024/02/11 04:05:39;;;;;;;23.60;10.10;;;;;;;4.13;100.00;99069.69;4919500;28;20057;-76
2024/02/11 04:08:08;;;;;;;21.10;10.82;;;;;;;4.14;100.00;99075.81;4938955;28;20035;-77
2024/02/11 04:10:36;;;;;;;22.67;10.52;;;;;;;4.16;100.00;99073.69;4935374;28;20647;-76
2024/02/11 04:13:02;;;;;;;22.48;9.75;;;;;;;4.16;100.00;99069.16;4937856;28;20031;-77
2024/02/11 04:15:28;;;;;;;22.90;9.50;;;;;;;4.18;100.00;99068.91;4944033;28;20036;-77
2024/02/11 04:17:56;;;;;;;20.42;9.52;;;;;;;4.19;100.00;99055.38;4924827;28;20745;-77
2024/02/11 04:20:27;;;;;;;25.55;10.70;;;;;;;4.22;100.00;99057.50;4937265;28;20039;-77
2024/02/11 04:23:00;;;;;;;23.50;10.75;;;;;;;4.21;100.00;99049.81;4933743;28;20110;-77
2024/02/11 04:25:34;;;;;;;24.33;11.73;;;;;;;4.18;100.00;99060.94;4933479;28;20168;-78
2024/02/11 04:28:01;;;;;;;20.98;10.05;;;;;;;4.18;100.00;99060.94;4938908;28;20035;-79
2024/02/11 04:30:29;;;;;;;25.63;10.40;;;;;;;4.18;100.00;99045.84;4942140;28;20035;-77
2024/02/11 04:32:59;;;;;;;24.73;10.43;;;;;;;4.17;100.00;99043.47;4922944;28;20043;-77
2024/02/11 04:35:24;;;;;;;27.45;10.75;;;;;;;4.18;100.00;99050.34;4918666;29;20066;-77
2024/02/11 04:37:55;;;;;;;23.58;10.48;;;;;;;4.16;100.00;99049.84;4913886;28;20127;-78
2024/02/11 04:40:22;;;;;;;25.45;11.80;;;;;;;4.15;100.00;99058.84;4941003;28;20054;-78
2024/02/11 04:42:56;;;;;;;23.25;10.57;;;;;;;4.15;100.00;99056.19;4920430;28;20095;-77
2024/02/11 04:45:24;;;;;;;21.48;10.25;;;;;;;4.14;100.00;99046.66;4922637;29;20046;-79
2024/02/11 04:48:00;;;;;;;22.60;10.68;;;;;;;4.15;100.00;99056.19;4933537;28;20046;-77
2024/02/11 04:50:27;;;;;;;22.90;9.40;;;;;;;4.16;100.00;99042.66;4942964;28;20054;-77
2024/02/11 04:52:54;;;;;;;27.33;10.85;;;;;;;4.17;100.00;99046.13;4939645;28;20082;-77
2024/02/11 04:55:24;;;;;;;25.25;10.02;;;;;;;4.17;100.00;99046.13;4938172;28;20519;-77
2024/02/11 04:57:51;;;;;;;29.33;11.93;;;;;;;4.15;100.00;99041.09;4939381;28;20117;-78
2024/02/11 05:00:26;;;;;;;26.65;10.93;;;;;;;4.16;100.00;99036.59;4917247;29;20118;-77
2024/02/11 05:02:55;;;;;;;25.73;10.77;;;;;;;4.13;100.00;99039.75;4935286;28;20508;-79
2024/02/11 05:05:27;;;;;;;24.50;12.50;;;;;;;4.10;100.00;99041.09;4921809;29;20661;-78
2024/02/11 05:08:00;;;;;;;28.33;11.63;;;;;;;4.09;100.00;99042.94;4942047;28;20039;-77
2024/02/11 05:10:27;;;;;;;25.73;10.77;;;;;;;4.08;100.00;99044.03;4926974;29;20035;-79
2024/02/11 05:12:54;;;;;;;26.00;10.48;;;;;;;4.07;100.00;99037.13;4925176;28;20035;-79
2024/02/11 05:15:20;;;;;;;25.05;10.73;;;;;;;4.09;100.00;99036.88;4933531;28;20055;-77
2024/02/11 05:17:50;;;;;;;25.27;10.75;;;;;;;4.09;100.00;99034.22;4931042;28;20055;-78
2024/02/11 05:20:23;;;;;;;24.85;11.68;;;;;;;4.08;100.00;99030.78;4939530;28;20035;-78
2024/02/11 05:22:53;;;;;;;24.70;11.55;;;;;;;4.06;100.00;99032.91;4949119;28;20058;-78
2024/02/11 05:25:22;;;;;;;28.77;11.45;;;;;;;4.05;100.00;99031.28;4932453;28;20044;-77
2024/02/11 05:27:59;;;;;;;26.88;10.98;;;;;;;4.06;100.00;99035.56;4931556;28;20031;-77
2024/02/11 05:30:27;;;;;;;29.33;11.90;;;;;;;4.08;100.00;99043.22;4942903;28;20074;-78
2024/02/11 05:32:53;;;;;;;26.27;11.27;;;;;;;4.08;100.00;99040.56;4928815;28;20888;-78
2024/02/11 05:35:23;;;;;;;27.75;10.73;;;;;;;4.07;100.00;99046.94;4934274;28;20042;-78
2024/02/11 05:37:58;;;;;;;26.30;11.80;;;;;;;4.06;100.00;99053.28;4935816;28;20058;-78
2024/02/11 05:40:28;;;;;;;27.45;11.55;;;;;;;4.09;100.00;99050.09;4924337;29;20039;-76
2024/02/11 05:42:55;;;;;;;26.35;10.43;;;;;;;4.07;100.00;99047.72;4928829;28;20028;-78
2024/02/11 05:45:21;;;;;;;23.80;10.60;;;;;;;4.10;100.00;99033.16;4940444;28;20542;-77
2024/02/11 05:47:48;;;;;;;25.35;11.15;;;;;;;4.08;100.00;99044.03;4936865;28;20043;-77
2024/02/11 05:50:13;;;;;;;;;;;;;;;4.09;100.00;99044.81;4935730;28;20515;-76
2024/02/11 05:52:40;;;;;;;24.80;10.63;;;;;;;4.07;100.00;99036.34;4937041;28;19919;-76
2024/02/11 05:55:09;;;;;;;24.05;10.50;;;;;;;4.09;100.00;99045.59;4932522;28;20113;-77
2024/02/11 05:57:41;;;;;;;27.38;10.88;;;;;;;4.09;100.00;99039.50;4931341;28;20043;-77
2024/02/11 06:00:12;;;;;;;26.70;11.23;;;;;;;4.08;100.00;99049.31;4917054;28;20122;-77
2024/02/11 06:02:40;;;;;;;24.95;11.52;;;;;;;4.06;100.00;99032.91;4936289;28;20035;-77
2024/02/11 06:05:12;;;;;;;28.10;11.52;;;;;;;4.08;100.00;99036.06;4935317;28;20761;-78
2024/02/11 06:07:38;;;;;;;;;;;;;;;4.10;100.00;99049.03;4940510;28;20047;-77
2024/02/11 06:10:05;;;;;;;23.95;11.15;;;;;;;4.09;100.00;99053.53;4937362;28;19918;-77
2024/02/11 06:12:32;;;;;;;26.63;11.48;;;;;;;4.10;100.00;99055.13;4932774;28;20041;-78
2024/02/11 06:14:58;;;;;;;26.80;11.88;;;;;;;4.09;100.00;99047.47;4934165;28;20086;-77
2024/02/11 06:17:25;;;;;;;27.50;10.82;;;;;;;4.11;100.00;99056.72;4919108;29;20040;-78
2024/02/11 06:19:53;;;;;;;25.88;10.85;;;;;;;4.10;100.00;99060.44;4931238;28;20493;-77
2024/02/11 06:22:19;;;;;;;25.27;11.45;;;;;;;4.14;100.00;99065.22;4918674;28;20043;-77
2024/02/11 06:24:46;;;;;;;;;;;;;;;4.17;100.00;99069.97;4931587;28;20030;-77
2024/02/11 06:27:13;;;;;;;24.65;10.73;;;;;;;4.16;100.00;99068.38;4931786;28;20032;-77
2024/02/11 06:29:42;;;;;;;26.63;11.07;;;;;;;4.14;100.00;99065.22;4927181;28;20035;-78
2024/02/11 06:32:08;;;;;;;26.25;11.77;;;;;;;4.16;100.00;99078.97;4931112;28;20046;-78
2024/02/11 06:34:36;;;;;;;22.63;10.27;;;;;;;4.17;100.00;99075.25;4938182;28;20024;-78
2024/02/11 06:37:04;;;;;;;28.13;11.75;;;;;;;4.13;100.00;99076.84;4938678;28;20043;-77
2024/02/11 06:39:30;;;;;;;25.85;11.68;;;;;;;4.15;100.00;99072.88;4938552;28;20039;-76
2024/02/11 06:41:59;;;;;;;;;;;;;;;4.17;100.00;99075.25;4917254;28;20052;-77
2024/02/11 06:44:28;;;;;;;23.55;9.70;;;;;;;4.17;100.00;99081.34;4936785;28;20035;-78
2024/02/11 06:46:55;;;;;;;24.58;10.27;;;;;;;4.20;100.00;99082.66;4932147;28;20042;-76
2024/02/11 06:49:25;;;;;;;23.63;10.77;;;;;;;4.23;100.00;99084.78;4933911;28;20046;-77
2024/02/11 06:51:51;;;;;;;28.40;11.70;;;;;;;4.22;100.00;99091.16;4938665;28;20038;-76
2024/02/11 06:54:21;;;;;;;24.13;10.73;;;;;;;4.19;100.00;99099.63;4941320;28;20382;-77
2024/02/11 06:56:47;;;;;;;24.77;10.63;;;;;;;4.18;100.00;99101.47;4943602;28;20047;-77
2024/02/11 06:59:14;;;;;;;26.88;12.43;;;;;;;4.17;100.00;99104.41;4935873;28;20043;-77
2024/02/11 07:01:41;;;;;;;26.50;12.23;;;;;;;4.19;100.00;99104.91;4931708;28;20253;-78
2024/02/11 07:04:08;;;;;;;23.45;11.35;;;;;;;4.20;100.00;99111.81;4935122;28;20434;-77
2024/02/11 07:06:35;;;;;;;24.40;12.05;;;;;;;4.19;100.00;99118.16;4934636;28;20074;-77
2024/02/11 07:09:01;;;;;;;23.98;10.65;;;;;;;4.19;100.00;99126.13;4937838;28;20035;-79
2024/02/11 07:11:28;;;;;;;25.90;11.73;;;;;;;4.21;100.00;99129.31;4936399;28;20043;-78
2024/02/11 07:13:53;;;;;;;27.85;12.00;;;;;;;4.21;100.00;99129.31;4921157;28;20174;-78
2024/02/11 07:16:27;;;;;;;25.40;11.27;;;;;;;4.20;100.00;99130.34;4927944;29;20130;-76
2024/02/11 07:18:54;;;;;;;27.70;12.15;;;;;;;4.21;100.00;99143.34;4938830;28;20047;-77
2024/02/11 07:21:21;;;;;;;25.75;11.65;;;;;;;4.22;100.00;99144.94;4942844;28;20143;-77
2024/02/11 07:23:47;;;;;;;27.30;11.30;;;;;;;4.22;100.00;99146.81;4931837;28;20587;-77
2024/02/11 07:26:14;;;;;;;24.90;11.18;;;;;;;4.23;100.00;99153.69;4934194;28;20420;-78
2024/02/11 07:28:39;;;;;;;25.65;11.13;;;;;;;4.23;100.00;99158.97;4937207;28;20508;-78
2024/02/11 07:31:05;;;;;;;24.85;11.18;;;;;;;4.25;100.00;99156.84;4923217;28;20070;-77
2024/02/11 07:33:31;;;;;;;24.40;10.57;;;;;;;4.25;100.00;99156.84;4942010;28;20162;-77
2024/02/11 07:35:56;;;;;;;26.90;11.73;;;;;;;4.26;100.00;99158.44;4943918;28;20113;-78
2024/02/11 07:38:23;;;;;;;27.17;11.60;;;;;;;4.25;100.00;99151.56;4937215;28;20035;-76
2024/02/11 07:40:50;;;;;;;26.92;11.52;;;;;;;4.24;100.00;99161.34;4936587;28;20528;-79
2024/02/11 07:43:17;;;;;;;24.52;11.00;;;;;;;4.26;100.00;99158.44;4918274;28;20043;-78
2024/02/11 07:45:43;;;;;;;28.80;11.25;;;;;;;4.26;100.00;99161.88;4937136;28;20035;-79
2024/02/11 07:48:09;;;;;;;;;;;;;;;4.25;100.00;99160.28;4937244;28;20042;-77
2024/02/11 07:50:36;;;;;;;26.63;11.02;;;;;;;4.26;100.00;99153.13;4939159;28;19919;-77
2024/02/11 07:53:05;;;;;;;29.55;11.55;;;;;;;4.25;100.00;99157.66;4937623;28;20086;-78
2024/02/11 07:55:31;;;;;;;27.38;10.85;;;;;;;4.28;100.00;99151.84;4925145;29;20035;-78
2024/02/11 07:58:03;;;;;;;27.70;11.23;;;;;;;4.28;100.00;99151.03;4940029;28;20090;-79
2024/02/11 08:00:31;;;;;;;29.00;12.40;;;;;;;4.29;100.00;99152.63;4921187;29;20122;-78
2024/02/11 08:02:57;;;;;;;30.10;11.88;;;;;;;4.27;100.00;99149.44;4929150;28;20030;-78
2024/02/11 08:05:23;;;;;;;;;;;;;;;4.26;100.00;99143.34;4944844;28;20505;-77
2024/02/11 08:07:49;;;;;;;27.63;11.95;;;;;;;4.26;100.00;99150.50;4931163;28;19919;-77
2024/02/11 08:10:15;;;;;;;27.23;11.90;;;;;;;4.26;100.00;99150.50;4934787;28;20054;-77
2024/02/11 08:12:41;;;;;;;30.75;12.60;;;;;;;4.25;100.00;99151.56;4923199;29;20079;-78
2024/02/11 08:15:12;;;;;;;31.33;12.38;;;;;;;4.25;100.00;99152.34;4940040;28;20035;-77
2024/02/11 08:17:40;;;;;;;27.00;11.02;;;;;;;4.26;100.00;99153.94;4924705;29;20042;-77
2024/02/11 08:20:07;;;;;;;30.23;12.35;;;;;;;4.27;100.00;99154.75;4930697;28;20304;-77
2024/02/11 08:22:36;;;;;;;29.67;12.45;;;;;;;4.27;100.00;99158.19;4938766;28;20110;-79
2024/02/11 08:25:03;;;;;;;28.23;12.27;;;;;;;4.28;100.00;99159.78;4939499;28;20481;-77
2024/02/11 08:27:30;;;;;;;28.27;11.75;;;;;;;4.31;100.00;99161.88;4932345;28;20032;-77
2024/02/11 08:29:56;;;;;;;27.38;11.70;;;;;;;4.33;100.00;99158.97;4942436;28;20046;-77
2024/02/11 08:32:21;;;;;;;27.50;11.63;;;;;;;4.34;100.00;99156.06;4916988;29;20039;-77
2024/02/11 08:34:48;;;;;;;24.85;11.90;;;;;;;4.32;100.00;99163.47;4937311;28;20031;-77
2024/02/11 08:37:13;;;;;;;;;;;;;;;4.33;100.00;99169.56;4934833;28;20036;-78
2024/02/11 08:39:39;;;;;;;27.23;11.15;;;;;;;4.36;100.00;99177.00;4935285;28;20307;-77
2024/02/11 08:42:07;;;;;;;29.27;12.45;;;;;;;4.33;100.00;99175.66;4920372;28;20035;-78
2024/02/11 08:44:33;;;;;;;29.30;11.63;;;;;;;4.38;100.00;99180.16;4935433;28;20027;-77
2024/02/11 08:46:59;;;;;;;35.25;12.55;;;;;;;4.34;100.00;99181.78;4940554;28;20034;-77
2024/02/11 08:49:31;;;;;;;31.58;12.63;;;;;;;4.34;100.00;99171.97;4932931;28;20718;-79
2024/02/11 08:51:58;;;;;;;31.52;12.38;;;;;;;4.35;100.00;99173.56;4934755;28;20404;-79
2024/02/11 08:54:24;;;;;;;25.98;11.68;;;;;;;4.33;100.00;99170.34;4934213;28;20091;-78
2024/02/11 08:56:50;;;;;;;33.75;12.07;;;;;;;4.35;100.00;99172.75;4934045;28;20476;-76
2024/02/11 08:59:16;;;;;;;39.00;13.88;;;;;;;4.35;100.00;99172.75;4938352;28;20098;-77
2024/02/11 09:01:50;;;;;;;32.33;13.15;;;;;;;4.34;100.00;99173.81;4920047;29;20028;-76
2024/02/11 09:04:17;;;;;;;34.55;13.13;;;;;;;4.36;100.00;99179.66;4934086;28;20038;-77
2024/02/11 09:06:46;;;;;;;31.17;12.57;;;;;;;4.36;100.00;99183.09;4934896;28;20101;-77
2024/02/11 09:09:12;;;;;;;29.73;13.70;;;;;;;4.38;100.00;99178.31;4938234;28;20114;-78
2024/02/11 09:11:38;;;;;;;34.33;13.75;;;;;;;4.41;100.00;99173.56;4937534;28;20126;-77
2024/02/11 09:14:03;;;;;;;;;;;;;;;4.39;100.00;99176.44;4934968;28;20035;-78
2024/02/11 09:16:30;;;;;;;33.55;12.63;;;;;;;4.39;100.00;99163.19;4937641;28;19925;-77
2024/02/11 09:18:56;;;;;;;;;;;;;;;4.42;100.00;99173.28;4936005;28;20115;-77
2024/02/11 09:21:22;;;;;;;28.48;12.77;;;;;;;4.42;100.00;99175.13;4933441;28;19918;-77
2024/02/11 09:23:48;;;;;;;34.85;13.65;;;;;;;4.42;100.00;99169.84;4938584;28;20120;-77
2024/02/11 09:26:14;;;;;;;32.38;14.43;;;;;;;4.41;100.00;99165.59;4938000;28;20521;-78
2024/02/11 09:28:42;;;;;;;34.22;13.27;;;;;;;4.42;100.00;99164.53;4944971;28;20031;-77
2024/02/11 09:31:09;;;;;;;34.08;14.80;;;;;;;4.45;100.00;99162.13;4933530;28;20031;-77
2024/02/11 09:33:36;;;;;;;30.65;13.18;;;;;;;4.45;100.00;99166.63;4941096;28;20094;-76
2024/02/11 09:36:03;;;;;;;34.22;14.82;;;;;;;4.45;100.00;99172.72;4943406;28;20067;-77
2024/02/11 09:38:29;;;;;;;33.28;13.77;;;;;;;4.48;100.00;99171.44;4935856;28;20042;-77
2024/02/11 09:40:54;;;;;;;35.00;14.57;;;;;;;4.49;100.00;99178.31;4934157;28;20045;-78
2024/02/11 09:43:20;;;;;;;37.67;13.25;;;;;;;4.53;100.00;99179.34;4935229;28;20043;-77
2024/02/11 09:45:50;;;;;;;33.15;13.90;;;;;;;4.54;100.00;99187.06;4935940;28;20046;-78
2024/02/11 09:48:17;;;;;;;33.97;13.85;;;;;;;4.57;100.00;99188.38;4940840;28;20035;-76
2024/02/11 09:50:44;;;;;;;32.78;14.00;;;;;;;4.57;100.00;99191.81;4943956;28;20508;-78
2024/02/11 09:53:14;;;;;;;33.10;14.23;;;;;;;4.57;100.00;99197.13;4932552;28;20830;-76
2024/02/11 09:55:43;;;;;;;33.75;15.13;;;;;;;4.59;100.00;99200.28;4928920;28;20090;-76
2024/02/11 09:58:09;;;;;;;35.28;14.40;;;;;;;4.59;100.00;99194.97;4929220;28;20039;-77
2024/02/11 10:00:34;;;;;;;33.30;13.32;;;;;;;4.58;100.00;99201.34;4945077;28;20782;-77
2024/02/11 10:03:07;;;;;;;34.08;13.55;;;;;;;4.58;100.00;99206.66;4934645;28;20114;-77
2024/02/11 10:05:35;;;;;;;34.83;15.07;;;;;;;4.61;100.00;99200.03;4946792;28;20087;-76
2024/02/11 10:08:13;;;;;;;33.30;13.02;;;;;;;4.61;100.00;99202.69;4936525;28;20041;-77
2024/02/11 10:10:40;;;;;;;32.33;13.05;;;;;;;4.64;100.00;99205.59;4938934;28;20471;-77
2024/02/11 10:13:07;;;;;;;33.25;14.32;;;;;;;4.62;100.00;99205.06;4919880;28;20050;-77
2024/02/11 10:15:38;;;;;;;27.75;13.68;;;;;;;4.65;100.00;99204.53;4929230;28;20044;-77
2024/02/11 10:18:06;;;;;;;29.63;13.68;;;;;;;4.64;100.00;99202.94;4942991;28;20043;-76
2024/02/11 10:20:36;;;;;;;29.95;13.48;;;;;;;4.66;100.00;99200.00;4932761;28;20038;-77
2024/02/11 10:23:04;;;;;;;33.80;14.75;;;;;;;4.66;100.00;99206.09;4942040;28;20151;-76
2024/02/11 10:25:31;;;;;;;33.83;13.48;;;;;;;4.69;100.00;99204.00;4917008;29;20408;-77
2024/02/11 10:27:59;;;;;;;30.98;13.60;;;;;;;4.71;100.00;99204.53;4928655;28;20031;-78
2024/02/11 10:30:25;;;;;;;30.40;13.18;;;;;;;4.70;100.00;99202.94;4933865;28;20035;-77
2024/02/11 10:33:01;;;;;;;27.50;12.60;;;;;;;4.72;100.00;99214.06;4913933;29;20070;-77
2024/02/11 10:35:28;;;;;;;36.17;15.23;;;;;;;4.73;100.00;99205.03;4939191;28;20035;-80
2024/02/11 10:37:54;;;;;;;34.88;14.75;;;;;;;4.74;100.00;99211.94;4941167;28;20551;-79
2024/02/11 10:40:20;;;;;;;33.80;13.90;;;;;;;4.78;100.00;99215.66;4941628;28;20051;-78
2024/02/11 10:42:46;;;;;;;28.98;13.68;;;;;;;4.77;100.00;99214.84;4930193;29;20039;-78
2024/02/11 10:45:12;;;;;;;32.28;13.73;;;;;;;4.81;100.00;99207.13;4925054;28;20416;-78
2024/02/11 10:47:38;;;;;;;31.85;15.35;;;;;;;4.79;100.00;99222.53;4934807;28;20063;-79
2024/02/11 10:50:04;;;;;;;30.42;13.73;;;;;;;4.78;100.00;99220.94;4917854;28;20073;-79
2024/02/11 10:52:40;;;;;;;30.63;13.73;;;;;;;4.82;100.00;99214.06;4917695;29;20103;-78
2024/02/11 10:55:10;;;;;;;31.35;13.60;;;;;;;4.85;100.00;99216.16;4935829;28;20039;-77
2024/02/11 10:57:44;;;;;;;31.88;15.20;;;;;;;4.87;100.00;99216.69;4940199;28;20046;-78
2024/02/11 11:00:12;;;;;;;33.72;14.18;;;;;;;4.88;100.00;99218.28;4934385;28;20039;-78
2024/02/11 11:02:39;;;;;;;29.02;13.70;;;;;;;4.87;100.00;99221.97;4939002;28;20065;-78
2024/02/11 11:05:10;;;;;;;29.60;14.10;;;;;;;4.88;100.00;99224.38;4919834;28;20040;-77
2024/02/11 11:07:38;;;;;;;30.73;15.07;;;;;;;4.91;100.00;99223.03;4941122;28;20035;-78
2024/02/11 11:10:10;;;;;;;33.50;13.63;;;;;;;4.87;100.00;99229.94;4913639;29;20471;-77
2024/02/11 11:12:39;;;;;;;31.48;15.20;;;;;;;4.87;100.00;99221.97;4931890;28;20517;-78
2024/02/11 11:15:11;;;;;;;28.45;14.02;;;;;;;4.87;100.00;99225.44;4925939;29;20509;-78
2024/02/11 11:17:37;;;;;;;28.48;13.98;;;;;;;4.91;100.00;99217.75;4938456;28;20066;-78
2024/02/11 11:20:12;;;;;;;30.60;14.23;;;;;;;4.91;100.00;99220.38;4931719;29;20059;-80
2024/02/11 11:22:39;;;;;;;27.25;13.45;;;;;;;4.90;100.00;99216.16;4923659;29;20043;-79